Rechercher aéroport 
image banner adimage banner adimage banner ad
image banner ad

1CA9 - Los Angeles County Fire Department

Situé à Thousand Oaks, United States

ICAO - 1CA9, IATA -

Données fournies par Airmate  

Information générale

Coordonnées: N34°5'1" W118°51'48"
Élévation : 1360 feet MSL.
Variation magnétique : 14° East
Voir autres Aéroports à California

Données opérationnelles

Special qualification required
Heure actuelle UTC:
Heure actuelle locale:
METAR: KNTD 231452Z 36004KT 3SM BR OVC004 15/13 A2994 RMK AO2 SLP140 T01500128 53002 CHINO N VISNO N $
TAF: TAF KNTD 2315/2415 VRB05KT 4800 BR OVC005 QNH2989INS BECMG 2316/2318 25008KT 9999 NSW SCT008 QNH2988INS TEMPO 2318/2322 VRB06KT BKN008 FM232200 27011KT 9999 FEW008 FEW050 QNH2985INS FM240300 VRB05KT 9999 BKN005 QNH2990INS T22/2322Z T14/2413Z FS30029
Voir NOTAMs / SUP AIP / TFR affectant cet aéroport [VIEW]
Fréquences de communication: [VIEW]

Pistes:

Coordonnées de l'aéroport

Adresse: Thousand Oaks United States

Vue satellite de 1CA9